sensor_id;sensor_type;location;lat;lon;timestamp;P1;durP1;ratioP1;P2;durP2;ratioP2
24153;SDS011;12312;53.362;-1.518;2022-11-15T00:00:08;8.57;;;4.18;;
24153;SDS011;12312;53.362;-1.518;2022-11-15T00:02:35;12.77;;;4.95;;
24153;SDS011;12312;53.362;-1.518;2022-11-15T00:05:01;8.38;;;4.32;;
24153;SDS011;12312;53.362;-1.518;2022-11-15T00:07:28;9.75;;;4.65;;
24153;SDS011;12312;53.362;-1.518;2022-11-15T00:09:53;7.65;;;3.78;;
24153;SDS011;12312;53.362;-1.518;2022-11-15T00:12:21;10.55;;;3.80;;
24153;SDS011;12312;53.362;-1.518;2022-11-15T00:14:47;12.52;;;4.22;;
24153;SDS011;12312;53.362;-1.518;2022-11-15T00:17:13;5.78;;;3.50;;
24153;SDS011;12312;53.362;-1.518;2022-11-15T00:19:38;7.15;;;3.17;;
24153;SDS011;12312;53.362;-1.518;2022-11-15T00:22:04;8.40;;;4.00;;
24153;SDS011;12312;53.362;-1.518;2022-11-15T00:24:29;7.97;;;3.13;;
24153;SDS011;12312;53.362;-1.518;2022-11-15T00:26:55;6.32;;;3.28;;
24153;SDS011;12312;53.362;-1.518;2022-11-15T00:29:21;9.10;;;2.97;;
24153;SDS011;12312;53.362;-1.518;2022-11-15T00:31:47;6.82;;;2.33;;
24153;SDS011;12312;53.362;-1.518;2022-11-15T00:34:14;12.85;;;3.33;;
24153;SDS011;12312;53.362;-1.518;2022-11-15T00:36:40;6.70;;;2.80;;
24153;SDS011;12312;53.362;-1.518;2022-11-15T00:39:05;10.63;;;2.80;;
24153;SDS011;12312;53.362;-1.518;2022-11-15T00:41:31;7.07;;;2.55;;
24153;SDS011;12312;53.362;-1.518;2022-11-15T00:43:57;8.52;;;2.70;;
24153;SDS011;12312;53.362;-1.518;2022-11-15T00:46:23;7.43;;;2.90;;
24153;SDS011;12312;53.362;-1.518;2022-11-15T00:48:48;5.70;;;2.83;;
24153;SDS011;12312;53.362;-1.518;2022-11-15T00:51:15;8.10;;;3.30;;
24153;SDS011;12312;53.362;-1.518;2022-11-15T00:53:40;12.00;;;3.65;;
24153;SDS011;12312;53.362;-1.518;2022-11-15T00:56:06;7.68;;;3.03;;
24153;SDS011;12312;53.362;-1.518;2022-11-15T00:58:32;11.50;;;3.17;;
24153;SDS011;12312;53.362;-1.518;2022-11-15T01:01:11;8.73;;;3.33;;
24153;SDS011;12312;53.362;-1.518;2022-11-15T01:03:39;10.90;;;3.25;;
24153;SDS011;12312;53.362;-1.518;2022-11-15T01:06:06;8.18;;;3.00;;
24153;SDS011;12312;53.362;-1.518;2022-11-15T01:08:33;6.80;;;3.20;;
24153;SDS011;12312;53.362;-1.518;2022-11-15T01:11:03;12.00;;;2.90;;
24153;SDS011;12312;53.362;-1.518;2022-11-15T01:13:31;6.93;;;3.40;;
24153;SDS011;12312;53.362;-1.518;2022-11-15T01:15:58;10.13;;;2.88;;
24153;SDS011;12312;53.362;-1.518;2022-11-15T01:18:25;8.30;;;3.65;;
24153;SDS011;12312;53.362;-1.518;2022-11-15T01:20:51;8.77;;;3.70;;
24153;SDS011;12312;53.362;-1.518;2022-11-15T01:23:16;14.43;;;3.10;;
24153;SDS011;12312;53.362;-1.518;2022-11-15T01:25:42;10.20;;;3.20;;
24153;SDS011;12312;53.362;-1.518;2022-11-15T01:28:07;8.82;;;3.30;;
24153;SDS011;12312;53.362;-1.518;2022-11-15T01:30:33;11.80;;;3.13;;
24153;SDS011;12312;53.362;-1.518;2022-11-15T01:33:00;7.82;;;2.72;;
24153;SDS011;12312;53.362;-1.518;2022-11-15T01:35:26;7.10;;;2.60;;
24153;SDS011;12312;53.362;-1.518;2022-11-15T01:37:51;6.80;;;2.60;;
24153;SDS011;12312;53.362;-1.518;2022-11-15T01:40:17;8.98;;;2.35;;
24153;SDS011;12312;53.362;-1.518;2022-11-15T01:42:42;12.43;;;2.05;;
24153;SDS011;12312;53.362;-1.518;2022-11-15T01:45:15;12.38;;;2.15;;
24153;SDS011;12312;53.362;-1.518;2022-11-15T01:47:43;10.43;;;1.52;;
24153;SDS011;12312;53.362;-1.518;2022-11-15T01:50:17;12.27;;;2.22;;
24153;SDS011;12312;53.362;-1.518;2022-11-15T01:52:47;9.00;;;1.70;;
24153;SDS011;12312;53.362;-1.518;2022-11-15T01:57:42;10.40;;;2.10;;
24153;SDS011;12312;53.362;-1.518;2022-11-15T02:00:12;9.00;;;1.88;;
24153;SDS011;12312;53.362;-1.518;2022-11-15T02:02:38;11.45;;;1.88;;
24153;SDS011;12312;53.362;-1.518;2022-11-15T02:05:04;10.15;;;1.95;;
24153;SDS011;12312;53.362;-1.518;2022-11-15T02:07:30;10.70;;;2.22;;
24153;SDS011;12312;53.362;-1.518;2022-11-15T02:09:58;14.75;;;1.83;;
24153;SDS011;12312;53.362;-1.518;2022-11-15T02:12:27;10.65;;;2.08;;
24153;SDS011;12312;53.362;-1.518;2022-11-15T02:14:53;7.85;;;2.10;;
24153;SDS011;12312;53.362;-1.518;2022-11-15T02:28:49;16.52;;;2.80;;
24153;SDS011;12312;53.362;-1.518;2022-11-15T02:42:07;17.00;;;3.30;;
24153;SDS011;12312;53.362;-1.518;2022-11-15T02:44:56;10.70;;;3.40;;
24153;SDS011;12312;53.362;-1.518;2022-11-15T02:47:28;23.40;;;4.07;;
24153;SDS011;12312;53.362;-1.518;2022-11-15T02:50:00;13.45;;;3.58;;
24153;SDS011;12312;53.362;-1.518;2022-11-15T02:52:28;13.48;;;3.08;;
24153;SDS011;12312;53.362;-1.518;2022-11-15T02:54:58;14.60;;;3.28;;
24153;SDS011;12312;53.362;-1.518;2022-11-15T03:00:16;19.23;;;3.20;;
24153;SDS011;12312;53.362;-1.518;2022-11-15T03:03:08;10.77;;;3.08;;
24153;SDS011;12312;53.362;-1.518;2022-11-15T03:05:51;16.90;;;3.38;;
24153;SDS011;12312;53.362;-1.518;2022-11-15T03:08:31;13.77;;;3.60;;
24153;SDS011;12312;53.362;-1.518;2022-11-15T03:11:09;15.20;;;3.90;;
24153;SDS011;12312;53.362;-1.518;2022-11-15T03:13:47;9.88;;;3.17;;
24153;SDS011;12312;53.362;-1.518;2022-11-15T03:16:46;16.23;;;3.70;;
24153;SDS011;12312;53.362;-1.518;2022-11-15T03:19:22;12.93;;;3.45;;
24153;SDS011;12312;53.362;-1.518;2022-11-15T03:21:57;12.80;;;4.18;;
24153;SDS011;12312;53.362;-1.518;2022-11-15T03:24:26;12.57;;;3.13;;
24153;SDS011;12312;53.362;-1.518;2022-11-15T03:26:55;15.77;;;3.45;;
24153;SDS011;12312;53.362;-1.518;2022-11-15T03:29:26;11.75;;;3.25;;
24153;SDS011;12312;53.362;-1.518;2022-11-15T03:32:31;8.63;;;2.70;;
24153;SDS011;12312;53.362;-1.518;2022-11-15T03:35:02;18.52;;;2.42;;
24153;SDS011;12312;53.362;-1.518;2022-11-15T03:37:45;11.23;;;2.50;;
24153;SDS011;12312;53.362;-1.518;2022-11-15T03:40:12;15.65;;;3.30;;
24153;SDS011;12312;53.362;-1.518;2022-11-15T03:42:40;13.35;;;2.78;;
24153;SDS011;12312;53.362;-1.518;2022-11-15T03:45:16;11.45;;;2.65;;
24153;SDS011;12312;53.362;-1.518;2022-11-15T03:48:06;15.23;;;2.67;;
24153;SDS011;12312;53.362;-1.518;2022-11-15T03:50:36;39.35;;;3.75;;
24153;SDS011;12312;53.362;-1.518;2022-11-15T03:53:02;12.25;;;2.05;;
24153;SDS011;12312;53.362;-1.518;2022-11-15T03:55:28;12.85;;;2.50;;
24153;SDS011;12312;53.362;-1.518;2022-11-15T03:57:57;13.48;;;3.13;;
24153;SDS011;12312;53.362;-1.518;2022-11-15T04:00:24;12.07;;;2.63;;
24153;SDS011;12312;53.362;-1.518;2022-11-15T04:02:50;10.98;;;2.35;;
24153;SDS011;12312;53.362;-1.518;2022-11-15T04:05:16;8.48;;;2.28;;
24153;SDS011;12312;53.362;-1.518;2022-11-15T04:07:41;13.60;;;2.90;;
24153;SDS011;12312;53.362;-1.518;2022-11-15T04:10:08;12.05;;;2.47;;
24153;SDS011;12312;53.362;-1.518;2022-11-15T04:12:40;15.95;;;2.70;;
24153;SDS011;12312;53.362;-1.518;2022-11-15T04:15:09;11.88;;;2.00;;
24153;SDS011;12312;53.362;-1.518;2022-11-15T04:20:07;11.45;;;2.40;;
24153;SDS011;12312;53.362;-1.518;2022-11-15T04:22:57;10.10;;;2.95;;
24153;SDS011;12312;53.362;-1.518;2022-11-15T04:25:42;9.40;;;2.10;;
24153;SDS011;12312;53.362;-1.518;2022-11-15T04:28:10;7.13;;;2.20;;
24153;SDS011;12312;53.362;-1.518;2022-11-15T04:30:36;13.13;;;3.10;;
24153;SDS011;12312;53.362;-1.518;2022-11-15T04:33:02;17.30;;;2.25;;
24153;SDS011;12312;53.362;-1.518;2022-11-15T04:35:28;15.10;;;2.60;;
24153;SDS011;12312;53.362;-1.518;2022-11-15T04:37:55;14.38;;;2.67;;
24153;SDS011;12312;53.362;-1.518;2022-11-15T04:40:20;11.25;;;2.42;;
24153;SDS011;12312;53.362;-1.518;2022-11-15T04:42:46;14.48;;;2.53;;
24153;SDS011;12312;53.362;-1.518;2022-11-15T04:45:12;17.88;;;2.20;;
24153;SDS011;12312;53.362;-1.518;2022-11-15T04:47:37;8.63;;;2.80;;
24153;SDS011;12312;53.362;-1.518;2022-11-15T04:50:03;12.05;;;3.13;;
24153;SDS011;12312;53.362;-1.518;2022-11-15T04:52:29;22.38;;;3.28;;
24153;SDS011;12312;53.362;-1.518;2022-11-15T04:54:55;15.60;;;2.58;;
24153;SDS011;12312;53.362;-1.518;2022-11-15T04:57:21;20.75;;;3.67;;
24153;SDS011;12312;53.362;-1.518;2022-11-15T04:59:46;12.57;;;2.38;;
24153;SDS011;12312;53.362;-1.518;2022-11-15T05:02:12;12.07;;;2.88;;
24153;SDS011;12312;53.362;-1.518;2022-11-15T05:04:37;13.65;;;2.75;;
24153;SDS011;12312;53.362;-1.518;2022-11-15T05:07:03;17.40;;;3.80;;
24153;SDS011;12312;53.362;-1.518;2022-11-15T05:09:31;16.02;;;3.33;;
24153;SDS011;12312;53.362;-1.518;2022-11-15T05:11:57;12.23;;;2.90;;
24153;SDS011;12312;53.362;-1.518;2022-11-15T05:14:22;13.02;;;3.10;;
24153;SDS011;12312;53.362;-1.518;2022-11-15T05:16:48;8.70;;;3.50;;
24153;SDS011;12312;53.362;-1.518;2022-11-15T05:19:13;16.58;;;3.85;;
24153;SDS011;12312;53.362;-1.518;2022-11-15T05:21:39;18.58;;;4.40;;
24153;SDS011;12312;53.362;-1.518;2022-11-15T05:24:05;11.75;;;4.03;;
24153;SDS011;12312;53.362;-1.518;2022-11-15T05:26:31;14.50;;;4.20;;
24153;SDS011;12312;53.362;-1.518;2022-11-15T05:28:58;16.52;;;4.20;;
24153;SDS011;12312;53.362;-1.518;2022-11-15T05:31:25;12.50;;;4.28;;
24153;SDS011;12312;53.362;-1.518;2022-11-15T05:33:52;14.48;;;4.93;;
24153;SDS011;12312;53.362;-1.518;2022-11-15T05:38:50;12.23;;;5.65;;
24153;SDS011;12312;53.362;-1.518;2022-11-15T05:41:20;14.35;;;5.85;;
24153;SDS011;12312;53.362;-1.518;2022-11-15T05:43:49;17.52;;;5.93;;
24153;SDS011;12312;53.362;-1.518;2022-11-15T05:46:16;22.30;;;6.68;;
24153;SDS011;12312;53.362;-1.518;2022-11-15T05:48:43;16.20;;;6.57;;
24153;SDS011;12312;53.362;-1.518;2022-11-15T05:51:13;12.65;;;6.75;;
24153;SDS011;12312;53.362;-1.518;2022-11-15T05:53:42;12.82;;;6.40;;
24153;SDS011;12312;53.362;-1.518;2022-11-15T05:56:08;15.10;;;6.43;;
24153;SDS011;12312;53.362;-1.518;2022-11-15T05:58:35;20.08;;;7.07;;
24153;SDS011;12312;53.362;-1.518;2022-11-15T06:01:02;15.27;;;6.95;;
24153;SDS011;12312;53.362;-1.518;2022-11-15T06:03:28;17.83;;;7.13;;
24153;SDS011;12312;53.362;-1.518;2022-11-15T06:05:55;21.13;;;7.72;;
24153;SDS011;12312;53.362;-1.518;2022-11-15T06:08:21;15.93;;;7.03;;
24153;SDS011;12312;53.362;-1.518;2022-11-15T06:10:47;25.65;;;7.68;;
24153;SDS011;12312;53.362;-1.518;2022-11-15T06:13:12;16.83;;;7.18;;
24153;SDS011;12312;53.362;-1.518;2022-11-15T06:15:38;16.75;;;6.55;;
24153;SDS011;12312;53.362;-1.518;2022-11-15T06:18:06;15.13;;;7.55;;
24153;SDS011;12312;53.362;-1.518;2022-11-15T06:20:32;13.38;;;7.82;;
24153;SDS011;12312;53.362;-1.518;2022-11-15T06:23:01;18.17;;;7.00;;
24153;SDS011;12312;53.362;-1.518;2022-11-15T06:25:29;18.95;;;7.85;;
24153;SDS011;12312;53.362;-1.518;2022-11-15T06:27:55;18.38;;;7.65;;
24153;SDS011;12312;53.362;-1.518;2022-11-15T06:30:22;17.15;;;6.82;;
24153;SDS011;12312;53.362;-1.518;2022-11-15T06:32:49;20.27;;;8.52;;
24153;SDS011;12312;53.362;-1.518;2022-11-15T06:35:14;17.55;;;7.13;;
24153;SDS011;12312;53.362;-1.518;2022-11-15T06:37:40;16.42;;;7.13;;
24153;SDS011;12312;53.362;-1.518;2022-11-15T06:40:07;14.38;;;7.85;;
24153;SDS011;12312;53.362;-1.518;2022-11-15T06:42:33;26.73;;;9.00;;
24153;SDS011;12312;53.362;-1.518;2022-11-15T06:44:59;22.17;;;9.23;;
24153;SDS011;12312;53.362;-1.518;2022-11-15T06:47:25;21.15;;;8.15;;
24153;SDS011;12312;53.362;-1.518;2022-11-15T06:49:50;23.30;;;8.73;;
24153;SDS011;12312;53.362;-1.518;2022-11-15T06:52:18;15.10;;;8.98;;
24153;SDS011;12312;53.362;-1.518;2022-11-15T06:54:44;21.55;;;8.07;;
24153;SDS011;12312;53.362;-1.518;2022-11-15T06:57:10;17.05;;;8.55;;
24153;SDS011;12312;53.362;-1.518;2022-11-15T06:59:35;18.02;;;8.48;;
24153;SDS011;12312;53.362;-1.518;2022-11-15T07:02:02;26.77;;;9.65;;
24153;SDS011;12312;53.362;-1.518;2022-11-15T07:04:28;17.83;;;8.43;;
24153;SDS011;12312;53.362;-1.518;2022-11-15T07:06:53;24.33;;;9.50;;
24153;SDS011;12312;53.362;-1.518;2022-11-15T07:09:22;18.00;;;8.85;;
24153;SDS011;12312;53.362;-1.518;2022-11-15T07:11:47;25.70;;;9.48;;
24153;SDS011;12312;53.362;-1.518;2022-11-15T07:14:14;20.73;;;8.48;;
24153;SDS011;12312;53.362;-1.518;2022-11-15T07:16:39;18.05;;;9.45;;
24153;SDS011;12312;53.362;-1.518;2022-11-15T07:19:05;15.70;;;9.48;;
24153;SDS011;12312;53.362;-1.518;2022-11-15T07:21:32;19.95;;;10.18;;
24153;SDS011;12312;53.362;-1.518;2022-11-15T07:23:57;20.73;;;9.82;;
24153;SDS011;12312;53.362;-1.518;2022-11-15T07:26:23;19.15;;;9.70;;
24153;SDS011;12312;53.362;-1.518;2022-11-15T07:28:49;24.05;;;10.93;;
24153;SDS011;12312;53.362;-1.518;2022-11-15T07:31:14;18.92;;;10.63;;
24153;SDS011;12312;53.362;-1.518;2022-11-15T07:33:40;21.00;;;10.38;;
24153;SDS011;12312;53.362;-1.518;2022-11-15T07:36:05;20.48;;;10.95;;
24153;SDS011;12312;53.362;-1.518;2022-11-15T07:38:32;20.20;;;10.27;;
24153;SDS011;12312;53.362;-1.518;2022-11-15T07:40:59;22.25;;;10.80;;
24153;SDS011;12312;53.362;-1.518;2022-11-15T07:43:26;21.73;;;11.70;;
24153;SDS011;12312;53.362;-1.518;2022-11-15T07:45:53;22.77;;;11.02;;
24153;SDS011;12312;53.362;-1.518;2022-11-15T07:48:18;22.63;;;10.88;;
24153;SDS011;12312;53.362;-1.518;2022-11-15T07:50:45;20.40;;;11.13;;
24153;SDS011;12312;53.362;-1.518;2022-11-15T07:53:11;22.35;;;12.07;;
24153;SDS011;12312;53.362;-1.518;2022-11-15T07:55:36;18.05;;;10.75;;
24153;SDS011;12312;53.362;-1.518;2022-11-15T07:58:05;23.48;;;12.07;;
24153;SDS011;12312;53.362;-1.518;2022-11-15T08:00:33;25.10;;;12.38;;
24153;SDS011;12312;53.362;-1.518;2022-11-15T08:05:31;27.30;;;13.40;;
24153;SDS011;12312;53.362;-1.518;2022-11-15T08:07:57;22.85;;;12.85;;
24153;SDS011;12312;53.362;-1.518;2022-11-15T08:10:23;25.95;;;13.27;;
24153;SDS011;12312;53.362;-1.518;2022-11-15T08:12:56;27.48;;;14.35;;
24153;SDS011;12312;53.362;-1.518;2022-11-15T08:15:23;24.65;;;13.23;;
24153;SDS011;12312;53.362;-1.518;2022-11-15T08:17:53;31.50;;;14.60;;
24153;SDS011;12312;53.362;-1.518;2022-11-15T08:20:22;26.80;;;11.95;;
24153;SDS011;12312;53.362;-1.518;2022-11-15T08:22:49;26.88;;;11.10;;
24153;SDS011;12312;53.362;-1.518;2022-11-15T08:25:14;19.65;;;11.75;;
24153;SDS011;12312;53.362;-1.518;2022-11-15T08:27:40;24.50;;;10.93;;
24153;SDS011;12312;53.362;-1.518;2022-11-15T08:30:07;16.80;;;9.93;;
24153;SDS011;12312;53.362;-1.518;2022-11-15T08:32:33;17.83;;;10.18;;
24153;SDS011;12312;53.362;-1.518;2022-11-15T08:34:59;15.60;;;9.65;;
24153;SDS011;12312;53.362;-1.518;2022-11-15T08:37:25;16.35;;;8.25;;
24153;SDS011;12312;53.362;-1.518;2022-11-15T08:39:51;19.23;;;9.80;;
24153;SDS011;12312;53.362;-1.518;2022-11-15T08:42:17;16.73;;;9.30;;
24153;SDS011;12312;53.362;-1.518;2022-11-15T08:44:42;17.95;;;9.57;;
24153;SDS011;12312;53.362;-1.518;2022-11-15T08:47:12;19.08;;;10.40;;
24153;SDS011;12312;53.362;-1.518;2022-11-15T08:49:38;14.93;;;8.15;;
24153;SDS011;12312;53.362;-1.518;2022-11-15T08:52:04;13.95;;;7.82;;
24153;SDS011;12312;53.362;-1.518;2022-11-15T08:54:30;17.83;;;9.18;;
24153;SDS011;12312;53.362;-1.518;2022-11-15T08:56:55;15.25;;;8.25;;
24153;SDS011;12312;53.362;-1.518;2022-11-15T08:59:20;15.95;;;8.50;;
24153;SDS011;12312;53.362;-1.518;2022-11-15T09:01:48;13.30;;;7.40;;
24153;SDS011;12312;53.362;-1.518;2022-11-15T09:04:13;14.07;;;6.43;;
24153;SDS011;12312;53.362;-1.518;2022-11-15T09:06:39;14.25;;;8.70;;
24153;SDS011;12312;53.362;-1.518;2022-11-15T09:09:04;18.20;;;8.18;;
24153;SDS011;12312;53.362;-1.518;2022-11-15T09:11:29;15.10;;;7.88;;
24153;SDS011;12312;53.362;-1.518;2022-11-15T09:13:56;15.85;;;8.05;;
24153;SDS011;12312;53.362;-1.518;2022-11-15T09:16:22;17.13;;;8.73;;
24153;SDS011;12312;53.362;-1.518;2022-11-15T09:18:48;17.35;;;8.90;;
24153;SDS011;12312;53.362;-1.518;2022-11-15T09:21:13;14.98;;;8.98;;
24153;SDS011;12312;53.362;-1.518;2022-11-15T09:23:39;16.85;;;9.15;;
24153;SDS011;12312;53.362;-1.518;2022-11-15T09:26:05;20.52;;;9.63;;
24153;SDS011;12312;53.362;-1.518;2022-11-15T09:28:32;16.98;;;9.25;;
24153;SDS011;12312;53.362;-1.518;2022-11-15T09:30:58;25.92;;;8.93;;
24153;SDS011;12312;53.362;-1.518;2022-11-15T09:33:25;24.73;;;9.80;;
24153;SDS011;12312;53.362;-1.518;2022-11-15T09:35:51;18.83;;;9.48;;
24153;SDS011;12312;53.362;-1.518;2022-11-15T09:38:17;18.20;;;9.63;;
24153;SDS011;12312;53.362;-1.518;2022-11-15T09:40:43;20.77;;;9.45;;
24153;SDS011;12312;53.362;-1.518;2022-11-15T09:43:32;15.18;;;9.07;;
24153;SDS011;12312;53.362;-1.518;2022-11-15T09:46:37;18.25;;;9.13;;
24153;SDS011;12312;53.362;-1.518;2022-11-15T09:49:13;19.58;;;8.75;;
24153;SDS011;12312;53.362;-1.518;2022-11-15T09:51:44;18.42;;;9.13;;
24153;SDS011;12312;53.362;-1.518;2022-11-15T09:56:46;12.90;;;8.18;;
24153;SDS011;12312;53.362;-1.518;2022-11-15T10:04:35;14.73;;;6.30;;
24153;SDS011;12312;53.362;-1.518;2022-11-15T10:09:51;16.10;;;8.20;;
24153;SDS011;12312;53.362;-1.518;2022-11-15T10:12:39;31.73;;;12.77;;
24153;SDS011;12312;53.362;-1.518;2022-11-15T10:15:11;16.67;;;8.38;;
24153;SDS011;12312;53.362;-1.518;2022-11-15T10:20:33;17.30;;;9.15;;
24153;SDS011;12312;53.362;-1.518;2022-11-15T10:23:10;16.17;;;9.40;;
24153;SDS011;12312;53.362;-1.518;2022-11-15T10:25:38;16.48;;;7.85;;
24153;SDS011;12312;53.362;-1.518;2022-11-15T10:30:56;16.05;;;8.07;;
24153;SDS011;12312;53.362;-1.518;2022-11-15T10:33:25;15.63;;;7.75;;
24153;SDS011;12312;53.362;-1.518;2022-11-15T10:41:14;17.50;;;8.43;;
24153;SDS011;12312;53.362;-1.518;2022-11-15T10:46:33;11.73;;;7.18;;
24153;SDS011;12312;53.362;-1.518;2022-11-15T10:51:49;10.13;;;5.35;;
24153;SDS011;12312;53.362;-1.518;2022-11-15T10:54:36;9.90;;;4.90;;
24153;SDS011;12312;53.362;-1.518;2022-11-15T10:57:07;8.02;;;4.03;;
24153;SDS011;12312;53.362;-1.518;2022-11-15T10:59:38;9.02;;;4.35;;
24153;SDS011;12312;53.362;-1.518;2022-11-15T11:05:52;10.70;;;5.15;;
24153;SDS011;12312;53.362;-1.518;2022-11-15T11:08:04;10.25;;;6.78;;
24153;SDS011;12312;53.362;-1.518;2022-11-15T11:10:53;10.23;;;6.03;;
24153;SDS011;12312;53.362;-1.518;2022-11-15T11:13:22;13.80;;;5.95;;
24153;SDS011;12312;53.362;-1.518;2022-11-15T11:21:51;9.93;;;5.60;;
24153;SDS011;12312;53.362;-1.518;2022-11-15T11:24:22;6.10;;;4.22;;
24153;SDS011;12312;53.362;-1.518;2022-11-15T11:29:56;9.48;;;3.72;;
24153;SDS011;12312;53.362;-1.518;2022-11-15T11:32:46;6.07;;;3.58;;
24153;SDS011;12312;53.362;-1.518;2022-11-15T11:37:50;6.07;;;3.38;;
24153;SDS011;12312;53.362;-1.518;2022-11-15T11:40:27;5.25;;;3.35;;
24153;SDS011;12312;53.362;-1.518;2022-11-15T11:51:05;5.57;;;4.38;;
24153;SDS011;12312;53.362;-1.518;2022-11-15T11:56:24;7.65;;;4.60;;
24153;SDS011;12312;53.362;-1.518;2022-11-15T11:58:53;8.25;;;4.55;;
24153;SDS011;12312;53.362;-1.518;2022-11-15T12:01:24;8.75;;;4.45;;
24153;SDS011;12312;53.362;-1.518;2022-11-15T12:03:59;7.55;;;5.28;;
24153;SDS011;12312;53.362;-1.518;2022-11-15T12:06:35;10.20;;;5.80;;
24153;SDS011;12312;53.362;-1.518;2022-11-15T12:14:48;8.07;;;5.88;;
24153;SDS011;12312;53.362;-1.518;2022-11-15T12:17:20;7.60;;;5.72;;
24153;SDS011;12312;53.362;-1.518;2022-11-15T12:19:51;10.75;;;5.57;;
24153;SDS011;12312;53.362;-1.518;2022-11-15T12:22:22;7.68;;;5.32;;
24153;SDS011;12312;53.362;-1.518;2022-11-15T12:25:05;8.40;;;4.70;;
24153;SDS011;12312;53.362;-1.518;2022-11-15T12:27:46;7.53;;;4.13;;
24153;SDS011;12312;53.362;-1.518;2022-11-15T12:30:40;7.68;;;4.07;;
24153;SDS011;12312;53.362;-1.518;2022-11-15T12:33:29;12.57;;;5.68;;
24153;SDS011;12312;53.362;-1.518;2022-11-15T12:36:10;9.23;;;5.68;;
24153;SDS011;12312;53.362;-1.518;2022-11-15T12:39:04;8.13;;;4.93;;
24153;SDS011;12312;53.362;-1.518;2022-11-15T12:41:33;4.63;;;3.70;;
24153;SDS011;12312;53.362;-1.518;2022-11-15T12:44:00;4.95;;;3.75;;
24153;SDS011;12312;53.362;-1.518;2022-11-15T12:57:17;5.72;;;4.00;;
24153;SDS011;12312;53.362;-1.518;2022-11-15T13:02:24;6.05;;;4.90;;
24153;SDS011;12312;53.362;-1.518;2022-11-15T13:05:19;7.53;;;5.18;;
24153;SDS011;12312;53.362;-1.518;2022-11-15T13:17:45;6.53;;;5.18;;
24153;SDS011;12312;53.362;-1.518;2022-11-15T13:25:18;6.20;;;4.57;;
24153;SDS011;12312;53.362;-1.518;2022-11-15T13:30:58;5.18;;;3.72;;
24153;SDS011;12312;53.362;-1.518;2022-11-15T13:36:12;7.18;;;4.40;;
24153;SDS011;12312;53.362;-1.518;2022-11-15T13:38:41;4.93;;;4.15;;
24153;SDS011;12312;53.362;-1.518;2022-11-15T13:41:21;5.70;;;4.10;;
24153;SDS011;12312;53.362;-1.518;2022-11-15T13:43:50;4.78;;;4.10;;
24153;SDS011;12312;53.362;-1.518;2022-11-15T13:46:18;4.70;;;3.70;;
24153;SDS011;12312;53.362;-1.518;2022-11-15T13:48:53;4.85;;;3.85;;
24153;SDS011;12312;53.362;-1.518;2022-11-15T13:51:27;6.72;;;3.75;;
24153;SDS011;12312;53.362;-1.518;2022-11-15T13:56:35;3.90;;;3.20;;
24153;SDS011;12312;53.362;-1.518;2022-11-15T14:01:51;5.75;;;3.35;;
24153;SDS011;12312;53.362;-1.518;2022-11-15T14:04:19;4.90;;;3.20;;
24153;SDS011;12312;53.362;-1.518;2022-11-15T14:06:48;5.95;;;2.80;;
24153;SDS011;12312;53.362;-1.518;2022-11-15T14:12:19;2.63;;;2.22;;
24153;SDS011;12312;53.362;-1.518;2022-11-15T14:14:47;3.45;;;2.17;;
24153;SDS011;12312;53.362;-1.518;2022-11-15T14:17:19;3.08;;;2.30;;
24153;SDS011;12312;53.362;-1.518;2022-11-15T14:19:57;4.38;;;2.85;;
24153;SDS011;12312;53.362;-1.518;2022-11-15T14:22:24;4.00;;;2.08;;
24153;SDS011;12312;53.362;-1.518;2022-11-15T14:28:11;4.45;;;2.92;;
24153;SDS011;12312;53.362;-1.518;2022-11-15T14:30:38;4.35;;;2.30;;
24153;SDS011;12312;53.362;-1.518;2022-11-15T14:33:19;3.75;;;2.42;;
24153;SDS011;12312;53.362;-1.518;2022-11-15T14:35:52;3.65;;;2.30;;
24153;SDS011;12312;53.362;-1.518;2022-11-15T14:38:18;3.70;;;2.08;;
24153;SDS011;12312;53.362;-1.518;2022-11-15T14:40:44;3.45;;;1.60;;
24153;SDS011;12312;53.362;-1.518;2022-11-15T14:43:10;3.92;;;1.60;;
24153;SDS011;12312;53.362;-1.518;2022-11-15T14:45:37;2.67;;;1.50;;
24153;SDS011;12312;53.362;-1.518;2022-11-15T14:48:04;2.75;;;1.80;;
24153;SDS011;12312;53.362;-1.518;2022-11-15T14:50:29;2.88;;;2.10;;
24153;SDS011;12312;53.362;-1.518;2022-11-15T14:52:56;5.43;;;3.40;;
24153;SDS011;12312;53.362;-1.518;2022-11-15T14:55:23;6.18;;;3.72;;
24153;SDS011;12312;53.362;-1.518;2022-11-15T14:57:51;3.58;;;1.38;;
24153;SDS011;12312;53.362;-1.518;2022-11-15T15:00:20;3.10;;;2.10;;
24153;SDS011;12312;53.362;-1.518;2022-11-15T15:02:46;2.65;;;1.88;;
24153;SDS011;12312;53.362;-1.518;2022-11-15T15:05:20;2.88;;;1.83;;
24153;SDS011;12312;53.362;-1.518;2022-11-15T15:07:48;11.05;;;6.22;;
24153;SDS011;12312;53.362;-1.518;2022-11-15T15:10:15;18.13;;;9.52;;
24153;SDS011;12312;53.362;-1.518;2022-11-15T15:12:41;13.30;;;8.63;;
24153;SDS011;12312;53.362;-1.518;2022-11-15T15:15:14;5.63;;;3.63;;
24153;SDS011;12312;53.362;-1.518;2022-11-15T15:17:42;10.15;;;3.35;;
24153;SDS011;12312;53.362;-1.518;2022-11-15T15:20:08;9.05;;;2.80;;
24153;SDS011;12312;53.362;-1.518;2022-11-15T15:22:35;8.30;;;2.85;;
24153;SDS011;12312;53.362;-1.518;2022-11-15T15:25:01;5.20;;;3.00;;
24153;SDS011;12312;53.362;-1.518;2022-11-15T15:27:29;7.85;;;3.17;;
24153;SDS011;12312;53.362;-1.518;2022-11-15T15:29:55;4.68;;;2.40;;
24153;SDS011;12312;53.362;-1.518;2022-11-15T15:32:20;4.90;;;2.42;;
24153;SDS011;12312;53.362;-1.518;2022-11-15T15:34:46;3.88;;;2.38;;
24153;SDS011;12312;53.362;-1.518;2022-11-15T15:37:24;3.42;;;2.00;;
24153;SDS011;12312;53.362;-1.518;2022-11-15T15:39:51;3.03;;;2.20;;
24153;SDS011;12312;53.362;-1.518;2022-11-15T15:42:18;4.93;;;2.20;;
24153;SDS011;12312;53.362;-1.518;2022-11-15T15:44:45;9.48;;;2.20;;
24153;SDS011;12312;53.362;-1.518;2022-11-15T15:47:13;4.95;;;2.38;;
24153;SDS011;12312;53.362;-1.518;2022-11-15T15:49:42;5.35;;;2.00;;
24153;SDS011;12312;53.362;-1.518;2022-11-15T15:52:08;7.53;;;2.58;;
24153;SDS011;12312;53.362;-1.518;2022-11-15T15:54:34;3.58;;;1.90;;
24153;SDS011;12312;53.362;-1.518;2022-11-15T15:56:59;6.43;;;3.42;;
24153;SDS011;12312;53.362;-1.518;2022-11-15T15:59:25;3.58;;;2.40;;
24153;SDS011;12312;53.362;-1.518;2022-11-15T16:01:52;8.63;;;4.05;;
24153;SDS011;12312;53.362;-1.518;2022-11-15T16:04:17;19.55;;;7.25;;
24153;SDS011;12312;53.362;-1.518;2022-11-15T16:06:44;20.58;;;8.85;;
24153;SDS011;12312;53.362;-1.518;2022-11-15T16:09:14;26.17;;;12.07;;
24153;SDS011;12312;53.362;-1.518;2022-11-15T16:11:44;25.45;;;12.02;;
24153;SDS011;12312;53.362;-1.518;2022-11-15T16:14:12;28.20;;;12.57;;
24153;SDS011;12312;53.362;-1.518;2022-11-15T16:16:38;22.80;;;11.88;;
24153;SDS011;12312;53.362;-1.518;2022-11-15T16:19:04;20.23;;;9.65;;
24153;SDS011;12312;53.362;-1.518;2022-11-15T16:21:30;20.88;;;8.13;;
24153;SDS011;12312;53.362;-1.518;2022-11-15T16:23:56;21.90;;;9.35;;
24153;SDS011;12312;53.362;-1.518;2022-11-15T16:26:25;21.67;;;11.13;;
24153;SDS011;12312;53.362;-1.518;2022-11-15T16:28:53;25.83;;;13.02;;
24153;SDS011;12312;53.362;-1.518;2022-11-15T16:31:19;29.95;;;13.73;;
24153;SDS011;12312;53.362;-1.518;2022-11-15T16:33:49;37.90;;;17.67;;
24153;SDS011;12312;53.362;-1.518;2022-11-15T16:36:21;223.32;;;33.35;;
24153;SDS011;12312;53.362;-1.518;2022-11-15T16:38:48;45.05;;;20.95;;
24153;SDS011;12312;53.362;-1.518;2022-11-15T16:41:14;43.40;;;20.73;;
24153;SDS011;12312;53.362;-1.518;2022-11-15T16:43:46;43.15;;;19.25;;
24153;SDS011;12312;53.362;-1.518;2022-11-15T16:46:20;40.28;;;18.83;;
24153;SDS011;12312;53.362;-1.518;2022-11-15T16:48:48;34.00;;;17.15;;
24153;SDS011;12312;53.362;-1.518;2022-11-15T16:51:14;37.15;;;16.50;;
24153;SDS011;12312;53.362;-1.518;2022-11-15T16:53:40;50.97;;;16.77;;